createdAt,value
2023-08-26T00:01:58.457Z,21.59
2023-08-26T00:04:31.144Z,21.55
2023-08-26T00:07:04.234Z,21.48
2023-08-26T00:09:36.769Z,21.46
2023-08-26T00:12:10.064Z,21.43
2023-08-26T00:14:42.605Z,21.44
2023-08-26T00:17:15.095Z,21.43
2023-08-26T00:19:47.761Z,21.37
2023-08-26T00:22:20.242Z,21.36
2023-08-26T00:24:52.816Z,21.33
2023-08-26T00:27:25.295Z,21.31
2023-08-26T00:29:57.652Z,21.28
2023-08-26T00:32:32.189Z,21.25
2023-08-26T00:35:05.376Z,21.24
2023-08-26T00:37:38.466Z,21.22
2023-08-26T00:40:13.213Z,21.15
2023-08-26T00:42:45.630Z,21.10
2023-08-26T00:45:18.282Z,21.02
2023-08-26T00:47:50.599Z,20.99
2023-08-26T00:50:23.142Z,20.93
2023-08-26T00:52:55.658Z,20.86
2023-08-26T00:55:28.191Z,20.83
2023-08-26T00:58:00.537Z,20.82
2023-08-26T01:00:33.599Z,20.80
2023-08-26T01:03:06.145Z,20.75
2023-08-26T01:05:39.372Z,20.72
2023-08-26T01:08:12.370Z,20.71
2023-08-26T01:10:54.396Z,20.68
2023-08-26T01:13:32.296Z,20.66
2023-08-26T01:16:05.947Z,20.67
2023-08-26T01:18:39.327Z,20.62
2023-08-26T01:21:14.306Z,20.61
2023-08-26T01:23:49.427Z,20.60
2023-08-26T01:26:22.229Z,20.57
2023-08-26T01:28:54.537Z,20.56
2023-08-26T01:31:28.403Z,20.55
2023-08-26T01:34:08.794Z,20.54
2023-08-26T01:36:45.299Z,20.54
2023-08-26T01:39:19.683Z,20.51
2023-08-26T01:41:53.211Z,20.46
2023-08-26T01:44:26.946Z,20.45
2023-08-26T01:46:59.359Z,20.42
2023-08-26T01:49:31.670Z,20.39
2023-08-26T01:52:04.547Z,20.38
2023-08-26T01:54:36.773Z,20.33
2023-08-26T01:57:09.862Z,20.31
2023-08-26T01:59:42.055Z,20.31
2023-08-26T02:02:14.548Z,20.27
2023-08-26T02:04:46.897Z,20.22
2023-08-26T02:07:19.993Z,20.17
2023-08-26T02:09:52.434Z,20.15
2023-08-26T02:12:24.819Z,20.10
2023-08-26T02:14:57.224Z,20.06
2023-08-26T02:17:29.811Z,20.02
2023-08-26T02:20:02.441Z,19.97
2023-08-26T02:22:34.820Z,19.90
2023-08-26T02:25:09.289Z,19.88
2023-08-26T02:27:42.113Z,19.80
2023-08-26T02:30:16.487Z,19.70
2023-08-26T02:32:48.901Z,19.69
2023-08-26T02:35:21.327Z,19.70
2023-08-26T02:37:54.327Z,19.72
2023-08-26T02:40:26.877Z,19.68
2023-08-26T02:42:59.253Z,19.70
2023-08-26T02:45:31.548Z,19.69
2023-08-26T02:48:04.023Z,19.67
2023-08-26T02:50:39.042Z,19.61
2023-08-26T02:53:11.369Z,19.59
2023-08-26T02:55:43.681Z,19.52
2023-08-26T02:58:16.843Z,19.49
2023-08-26T03:00:49.126Z,19.44
2023-08-26T03:03:22.479Z,19.44
2023-08-26T03:05:59.636Z,19.40
2023-08-26T03:08:31.894Z,19.40
2023-08-26T03:11:06.195Z,19.40
2023-08-26T03:13:38.389Z,19.36
2023-08-26T03:16:13.049Z,19.27
2023-08-26T03:18:45.370Z,19.21
2023-08-26T03:21:17.621Z,19.18
2023-08-26T03:23:50.933Z,19.08
2023-08-26T03:26:23.402Z,18.95
2023-08-26T03:28:55.983Z,18.86
2023-08-26T03:31:28.434Z,18.74
2023-08-26T03:34:03.224Z,18.70
2023-08-26T03:36:35.514Z,18.67
2023-08-26T03:39:09.675Z,18.68
2023-08-26T03:41:42.628Z,18.67
2023-08-26T03:44:14.873Z,18.66
2023-08-26T03:46:47.182Z,18.65
2023-08-26T03:49:19.334Z,18.67
2023-08-26T03:51:53.285Z,18.66
2023-08-26T03:54:25.760Z,18.63
2023-08-26T03:56:58.015Z,18.63
2023-08-26T03:59:30.212Z,18.68
2023-08-26T04:02:04.216Z,18.77
2023-08-26T04:04:36.438Z,18.82
2023-08-26T04:07:09.511Z,18.88
2023-08-26T04:09:41.898Z,18.88
2023-08-26T04:12:14.424Z,18.87
2023-08-26T04:14:46.745Z,18.90
2023-08-26T04:17:19.100Z,18.98
2023-08-26T04:19:51.355Z,19.06
2023-08-26T04:22:23.578Z,19.03
2023-08-26T04:24:57.027Z,19.03
2023-08-26T04:27:29.796Z,19.12
2023-08-26T04:30:02.035Z,19.24
2023-08-26T04:32:35.775Z,19.30
2023-08-26T04:35:08.461Z,19.39
2023-08-26T04:37:40.912Z,19.51
2023-08-26T04:40:14.460Z,19.63
2023-08-26T04:42:46.963Z,19.75
2023-08-26T04:45:19.728Z,19.81
2023-08-26T04:47:52.470Z,19.82
2023-08-26T04:50:24.859Z,19.81
2023-08-26T04:52:57.217Z,19.84
2023-08-26T04:55:34.102Z,19.91
2023-08-26T04:58:10.980Z,19.92
2023-08-26T05:00:46.817Z,19.90
2023-08-26T05:03:19.224Z,19.92
2023-08-26T05:05:51.599Z,20.02
2023-08-26T05:08:23.962Z,20.11
2023-08-26T05:10:56.111Z,20.20
2023-08-26T05:13:28.484Z,20.30
2023-08-26T05:16:00.723Z,20.43
2023-08-26T05:18:33.503Z,20.56
2023-08-26T05:21:05.927Z,20.68
2023-08-26T05:23:38.196Z,20.72
2023-08-26T05:26:10.873Z,20.78
2023-08-26T05:28:43.243Z,20.87
2023-08-26T05:31:15.686Z,20.98
2023-08-26T05:33:48.251Z,21.08
2023-08-26T05:36:21.848Z,21.18
2023-08-26T05:38:54.523Z,21.28
2023-08-26T05:41:27.215Z,21.35
2023-08-26T05:43:59.741Z,21.41
2023-08-26T05:46:32.293Z,21.49
2023-08-26T05:49:04.884Z,21.56
2023-08-26T05:51:37.203Z,21.58
2023-08-26T05:54:09.680Z,21.59
2023-08-26T05:56:41.950Z,21.64
2023-08-26T05:59:14.119Z,21.70
2023-08-26T06:01:46.597Z,21.78
2023-08-26T06:04:19.137Z,21.87
2023-08-26T06:06:51.502Z,22.04
2023-08-26T06:09:24.203Z,22.14
2023-08-26T06:11:56.665Z,22.23
2023-08-26T06:14:29.065Z,22.37
2023-08-26T06:17:01.612Z,22.49
2023-08-26T06:19:34.620Z,22.56
2023-08-26T06:22:07.740Z,22.61
2023-08-26T06:24:41.416Z,22.69
2023-08-26T06:27:13.677Z,22.82
2023-08-26T06:29:56.534Z,22.98
2023-08-26T06:32:28.902Z,23.08
2023-08-26T06:35:01.483Z,23.17
2023-08-26T06:37:33.822Z,23.23
2023-08-26T06:40:07.119Z,23.30
2023-08-26T06:42:39.497Z,23.41
2023-08-26T06:45:16.405Z,23.54
2023-08-26T06:47:50.684Z,23.64
2023-08-26T06:50:24.320Z,23.81
2023-08-26T06:52:56.999Z,23.95
2023-08-26T06:55:29.997Z,24.13
2023-08-26T06:58:02.151Z,24.26
2023-08-26T07:00:34.428Z,24.38
2023-08-26T07:03:07.120Z,24.53
2023-08-26T07:05:39.729Z,24.67
2023-08-26T07:08:12.236Z,24.84
2023-08-26T07:10:46.176Z,24.99
2023-08-26T07:13:18.746Z,25.21
2023-08-26T07:15:50.960Z,25.49
2023-08-26T07:18:23.403Z,25.76
2023-08-26T07:20:55.839Z,26.03
2023-08-26T07:23:28.458Z,26.28
2023-08-26T07:26:00.767Z,26.37
2023-08-26T07:28:33.716Z,26.43
2023-08-26T07:31:09.804Z,26.57
2023-08-26T07:33:42.310Z,26.73
2023-08-26T07:36:14.631Z,26.80
2023-08-26T07:38:46.880Z,26.98
2023-08-26T07:41:20.196Z,27.15
2023-08-26T07:43:52.431Z,27.21
2023-08-26T07:49:00.193Z,27.41
2023-08-26T07:51:32.556Z,27.61
2023-08-26T07:54:04.924Z,27.74
2023-08-26T07:56:37.295Z,27.90
2023-08-26T07:59:09.833Z,28.04
2023-08-26T08:01:42.578Z,28.07
2023-08-26T08:04:15.242Z,27.99
2023-08-26T08:06:47.522Z,27.91
2023-08-26T08:09:19.833Z,27.92
2023-08-26T08:11:52.309Z,28.07
2023-08-26T08:14:24.682Z,28.24
2023-08-26T08:16:57.008Z,28.25
2023-08-26T08:19:29.950Z,28.20
2023-08-26T08:22:02.500Z,28.15
2023-08-26T08:24:34.889Z,28.07
2023-08-26T08:27:07.876Z,28.01
2023-08-26T08:29:40.165Z,27.89
2023-08-26T08:32:12.482Z,27.78
2023-08-26T08:34:44.803Z,27.78
2023-08-26T08:37:17.109Z,27.77
2023-08-26T08:39:49.564Z,27.93
2023-08-26T08:42:24.119Z,28.16
2023-08-26T08:44:59.202Z,28.36
2023-08-26T08:47:31.500Z,28.53
2023-08-26T08:50:04.457Z,28.79
2023-08-26T08:52:38.370Z,29.13
2023-08-26T08:55:11.774Z,29.47
2023-08-26T08:57:45.509Z,29.55
2023-08-26T09:00:19.540Z,29.69
2023-08-26T09:02:54.202Z,29.96
2023-08-26T09:05:26.925Z,30.23
2023-08-26T09:08:00.273Z,30.49
2023-08-26T09:10:33.646Z,30.86
2023-08-26T09:13:06.558Z,31.13
2023-08-26T09:15:39.980Z,31.26
2023-08-26T09:18:15.298Z,31.39
2023-08-26T09:20:49.621Z,31.57
2023-08-26T09:23:21.976Z,31.64
2023-08-26T09:25:59.632Z,31.61
2023-08-26T09:28:32.025Z,31.56
2023-08-26T09:31:09.159Z,31.52
2023-08-26T09:33:41.750Z,31.42
2023-08-26T09:38:51.693Z,31.14
2023-08-26T09:41:24.709Z,31.05
2023-08-26T09:43:59.210Z,31.01
2023-08-26T09:46:36.841Z,30.95
2023-08-26T09:49:09.265Z,30.98
2023-08-26T09:51:47.523Z,31.18
2023-08-26T09:54:22.956Z,31.19
2023-08-26T09:56:55.537Z,31.14
2023-08-26T09:59:28.357Z,31.02
2023-08-26T10:02:05.565Z,30.97
2023-08-26T10:04:40.475Z,30.94
2023-08-26T10:07:12.805Z,31.08
2023-08-26T10:09:52.195Z,31.10
2023-08-26T10:12:33.152Z,31.00
2023-08-26T10:15:08.485Z,30.91
2023-08-26T10:17:43.378Z,30.82
2023-08-26T10:20:16.814Z,30.72
2023-08-26T10:22:49.835Z,30.71
2023-08-26T10:25:23.228Z,30.74
2023-08-26T10:27:56.102Z,30.69
2023-08-26T10:30:29.510Z,30.55
2023-08-26T10:33:06.407Z,30.35
2023-08-26T10:35:43.022Z,30.07
2023-08-26T10:38:16.922Z,29.80
2023-08-26T10:40:49.525Z,29.55
2023-08-26T10:43:22.295Z,29.34
2023-08-26T10:45:56.257Z,29.12
2023-08-26T10:48:29.832Z,28.91
2023-08-26T10:51:05.556Z,28.72
2023-08-26T10:53:46.759Z,28.58
2023-08-26T10:56:22.817Z,28.39
2023-08-26T10:58:55.205Z,28.21
2023-08-26T11:01:28.369Z,28.03
2023-08-26T11:04:01.477Z,27.86
2023-08-26T11:06:39.721Z,27.73
2023-08-26T11:09:14.044Z,27.62
2023-08-26T11:11:47.643Z,27.47
2023-08-26T11:14:19.994Z,27.38
2023-08-26T11:16:54.182Z,27.29
2023-08-26T11:19:27.960Z,27.22
2023-08-26T11:22:03.244Z,27.17
2023-08-26T11:24:36.731Z,27.13
2023-08-26T11:27:12.118Z,27.09
2023-08-26T11:29:45.029Z,27.07
2023-08-26T11:32:17.387Z,27.04
2023-08-26T11:34:50.009Z,27.03
2023-08-26T11:37:25.762Z,27.03
2023-08-26T11:40:02.781Z,27.00
2023-08-26T11:42:35.275Z,27.01
2023-08-26T11:45:12.356Z,27.02
2023-08-26T11:47:45.313Z,27.04
2023-08-26T11:50:20.070Z,27.03
2023-08-26T11:52:52.397Z,27.00
2023-08-26T11:55:29.548Z,26.98
2023-08-26T11:58:03.920Z,26.98
2023-08-26T12:00:39.242Z,26.99
2023-08-26T12:03:11.585Z,27.03
2023-08-26T12:05:50.000Z,27.08
2023-08-26T12:08:24.502Z,27.15
2023-08-26T12:10:59.936Z,27.22
2023-08-26T12:13:42.343Z,27.29
2023-08-26T12:16:16.119Z,27.35
2023-08-26T12:18:50.280Z,27.40
2023-08-26T12:21:22.857Z,27.43
2023-08-26T12:23:55.325Z,27.44
2023-08-26T12:26:27.755Z,27.44
2023-08-26T12:29:00.404Z,27.46
2023-08-26T12:31:36.302Z,27.48
2023-08-26T12:34:08.623Z,27.53
2023-08-26T12:36:40.979Z,27.56
2023-08-26T12:39:13.421Z,27.59
2023-08-26T12:41:46.745Z,27.64
2023-08-26T12:44:20.332Z,27.73
2023-08-26T12:46:53.759Z,27.82
2023-08-26T12:49:27.876Z,28.00
2023-08-26T12:52:00.848Z,28.22
2023-08-26T12:54:33.337Z,28.42
2023-08-26T12:57:05.977Z,28.48
2023-08-26T12:59:38.360Z,28.80
2023-08-26T13:02:11.653Z,29.25
2023-08-26T13:04:44.564Z,29.73
2023-08-26T13:07:18.376Z,30.15
2023-08-26T13:09:50.810Z,30.54
2023-08-26T13:12:23.048Z,30.86
2023-08-26T13:14:55.161Z,31.29
2023-08-26T13:17:28.038Z,31.73
2023-08-26T13:20:00.872Z,31.85
2023-08-26T13:22:33.131Z,31.86
2023-08-26T13:25:05.707Z,31.76
2023-08-26T13:27:38.025Z,31.65
2023-08-26T13:30:11.983Z,31.65
2023-08-26T13:32:44.689Z,31.80
2023-08-26T13:35:17.520Z,32.08
2023-08-26T13:37:50.240Z,32.45
2023-08-26T13:40:22.966Z,32.59
2023-08-26T13:42:57.136Z,32.62
2023-08-26T13:45:29.933Z,32.73
2023-08-26T13:48:02.562Z,33.33
2023-08-26T13:50:35.194Z,34.04
2023-08-26T13:53:07.956Z,34.52
2023-08-26T13:55:40.420Z,34.56
2023-08-26T13:58:12.594Z,34.52
2023-08-26T14:00:45.200Z,34.35
2023-08-26T14:03:17.796Z,34.81
2023-08-26T14:05:52.161Z,36.09
2023-08-26T14:08:24.456Z,36.24
2023-08-26T14:10:57.293Z,36.58
2023-08-26T14:13:29.744Z,36.77
2023-08-26T14:16:02.273Z,38.01
2023-08-26T14:18:34.842Z,38.50
2023-08-26T14:21:07.428Z,37.95
2023-08-26T14:23:39.677Z,37.78
2023-08-26T14:26:11.960Z,37.56
2023-08-26T14:28:44.128Z,36.87
2023-08-26T14:31:16.565Z,37.33
2023-08-26T14:33:49.639Z,37.53
2023-08-26T14:36:22.367Z,38.09
2023-08-26T14:38:55.343Z,38.32
2023-08-26T14:41:27.571Z,38.07
2023-08-26T14:43:59.946Z,37.58
2023-08-26T14:46:33.095Z,37.48
2023-08-26T14:49:05.568Z,38.23
2023-08-26T14:51:38.813Z,38.33
2023-08-26T14:54:11.219Z,38.59
2023-08-26T14:56:44.058Z,38.50
2023-08-26T14:59:16.532Z,38.12
2023-08-26T15:01:48.970Z,37.65
2023-08-26T15:04:21.532Z,37.80
2023-08-26T15:06:54.081Z,38.35
2023-08-26T15:09:26.597Z,38.03
2023-08-26T15:11:58.920Z,38.20
2023-08-26T15:14:31.339Z,37.97
2023-08-26T15:17:04.580Z,37.87
2023-08-26T15:19:36.961Z,37.46
2023-08-26T15:22:09.934Z,37.72
2023-08-26T15:24:42.307Z,38.18
2023-08-26T15:27:15.190Z,38.03
2023-08-26T15:29:47.764Z,38.04
2023-08-26T15:32:20.132Z,38.38
2023-08-26T15:34:52.491Z,38.55
2023-08-26T15:37:25.703Z,38.76
2023-08-26T15:39:58.147Z,38.62
2023-08-26T15:42:30.465Z,38.31
2023-08-26T15:45:02.724Z,37.18
2023-08-26T15:47:35.489Z,35.96
2023-08-26T15:50:09.024Z,34.77
2023-08-26T15:52:41.320Z,33.74
2023-08-26T15:55:13.504Z,32.96
2023-08-26T15:57:46.600Z,32.22
2023-08-26T16:00:19.427Z,31.50
2023-08-26T16:02:51.667Z,30.90
2023-08-26T16:05:23.974Z,30.47
2023-08-26T16:07:56.431Z,30.03
2023-08-26T16:10:28.782Z,29.71
2023-08-26T16:13:01.202Z,29.40
2023-08-26T16:15:34.613Z,29.07
2023-08-26T16:18:07.544Z,28.71
2023-08-26T16:20:39.945Z,28.45
2023-08-26T16:23:12.302Z,28.20
2023-08-26T16:25:44.665Z,28.03
2023-08-26T16:28:17.172Z,27.94
2023-08-26T16:30:49.440Z,27.83
2023-08-26T16:33:24.205Z,27.75
2023-08-26T16:35:58.448Z,27.62
2023-08-26T16:38:31.956Z,27.49
2023-08-26T16:41:04.303Z,27.39
2023-08-26T16:43:36.595Z,27.27
2023-08-26T16:46:09.897Z,27.21
2023-08-26T16:48:44.270Z,27.06
2023-08-26T16:51:16.721Z,26.90
2023-08-26T16:53:49.301Z,26.83
2023-08-26T16:56:21.533Z,26.78
2023-08-26T16:58:53.841Z,26.70
2023-08-26T17:01:26.533Z,26.63
2023-08-26T17:03:58.944Z,26.58
2023-08-26T17:06:31.249Z,26.54
2023-08-26T17:09:03.610Z,26.47
2023-08-26T17:11:36.017Z,26.37
2023-08-26T17:14:08.490Z,26.29
2023-08-26T17:16:40.683Z,26.23
2023-08-26T17:19:12.991Z,26.17
2023-08-26T17:21:46.019Z,26.10
2023-08-26T17:24:18.301Z,25.98
2023-08-26T17:26:50.740Z,25.88
2023-08-26T17:29:23.366Z,25.78
2023-08-26T17:31:55.706Z,25.73
2023-08-26T17:34:28.142Z,25.68
2023-08-26T17:37:00.551Z,25.62
2023-08-26T17:39:33.052Z,25.55
2023-08-26T17:42:06.121Z,25.44
2023-08-26T17:44:39.085Z,25.35
2023-08-26T17:47:11.404Z,25.25
2023-08-26T17:49:43.796Z,25.15
2023-08-26T17:52:16.120Z,25.07
2023-08-26T17:54:48.385Z,25.00
2023-08-26T17:57:20.727Z,24.90
2023-08-26T17:59:53.108Z,24.83
2023-08-26T18:02:25.696Z,24.76
2023-08-26T18:04:58.283Z,24.67
2023-08-26T18:07:30.631Z,24.58
2023-08-26T18:10:03.056Z,24.48
2023-08-26T18:12:35.294Z,24.39
2023-08-26T18:15:08.524Z,24.29
2023-08-26T18:17:41.067Z,24.23
2023-08-26T18:20:14.669Z,24.14
2023-08-26T18:22:46.956Z,24.03
2023-08-26T18:25:19.418Z,23.90
2023-08-26T18:27:51.652Z,23.81
2023-08-26T18:30:24.738Z,23.71
2023-08-26T18:32:57.874Z,23.65
2023-08-26T18:35:30.459Z,23.59
2023-08-26T18:38:02.727Z,23.51
2023-08-26T18:40:35.398Z,23.40
2023-08-26T18:43:08.090Z,23.33
2023-08-26T18:45:40.758Z,23.25
2023-08-26T18:48:13.047Z,23.22
2023-08-26T18:50:45.412Z,23.21
2023-08-26T18:53:17.787Z,23.16
2023-08-26T18:55:53.902Z,23.09
2023-08-26T18:58:27.696Z,23.05
2023-08-26T19:01:00.469Z,22.97
2023-08-26T19:03:32.805Z,22.91
2023-08-26T19:06:08.862Z,22.85
2023-08-26T19:08:41.495Z,22.85
2023-08-26T19:11:13.713Z,22.86
2023-08-26T19:13:46.053Z,22.87
2023-08-26T19:16:18.323Z,22.88
2023-08-26T19:18:51.083Z,22.88
2023-08-26T19:21:24.051Z,22.82
2023-08-26T19:23:56.700Z,22.75
2023-08-26T19:26:30.152Z,22.71
2023-08-26T19:29:02.830Z,22.65
2023-08-26T19:31:36.000Z,22.62
2023-08-26T19:34:08.804Z,22.58
2023-08-26T19:36:41.342Z,22.59
2023-08-26T19:39:15.276Z,22.60
2023-08-26T19:41:47.735Z,22.58
2023-08-26T19:44:19.911Z,22.56
2023-08-26T19:46:52.297Z,22.51
2023-08-26T19:49:25.056Z,22.49
2023-08-26T19:51:57.454Z,22.42
2023-08-26T19:54:29.969Z,22.32
2023-08-26T19:57:10.594Z,22.27
2023-08-26T19:59:43.062Z,22.24
2023-08-26T20:02:15.642Z,22.17
2023-08-26T20:04:50.648Z,22.16
2023-08-26T20:07:23.058Z,22.14
2023-08-26T20:09:56.689Z,22.11
2023-08-26T20:12:30.410Z,22.11
2023-08-26T20:15:05.368Z,22.10
2023-08-26T20:17:38.583Z,22.07
2023-08-26T20:20:12.733Z,22.06
2023-08-26T20:22:44.941Z,22.03
2023-08-26T20:25:17.329Z,22.02
2023-08-26T20:27:49.606Z,21.91
2023-08-26T20:30:22.679Z,21.75
2023-08-26T20:32:54.972Z,21.64
2023-08-26T20:35:27.230Z,21.56
2023-08-26T20:37:59.969Z,21.51
2023-08-26T20:40:32.168Z,21.41
2023-08-26T20:43:04.553Z,21.40
2023-08-26T20:45:36.918Z,21.40
2023-08-26T20:48:42.923Z,21.38
2023-08-26T20:51:15.907Z,21.33
2023-08-26T20:53:49.531Z,21.31
2023-08-26T20:56:21.801Z,21.25
2023-08-26T20:58:54.202Z,21.24
2023-08-26T21:01:28.286Z,21.24
2023-08-26T21:04:00.970Z,21.23
2023-08-26T21:06:33.283Z,21.23
2023-08-26T21:09:05.786Z,21.23
2023-08-26T21:11:38.245Z,21.22
2023-08-26T21:14:10.513Z,21.20
2023-08-26T21:16:42.899Z,21.20
2023-08-26T21:19:15.113Z,21.19
2023-08-26T21:21:47.498Z,21.19
2023-08-26T21:24:19.599Z,21.21
2023-08-26T21:26:51.880Z,21.25
2023-08-26T21:29:24.211Z,21.28
2023-08-26T21:31:56.509Z,21.28
2023-08-26T21:34:28.837Z,21.31
2023-08-26T21:37:01.160Z,21.32
2023-08-26T21:39:33.419Z,21.32
2023-08-26T21:42:06.200Z,21.30
2023-08-26T21:44:38.481Z,21.31
2023-08-26T21:47:11.004Z,21.32
2023-08-26T21:49:43.736Z,21.33
2023-08-26T21:52:16.688Z,21.34
2023-08-26T21:54:49.212Z,21.35
2023-08-26T21:57:21.433Z,21.35
2023-08-26T21:59:53.652Z,21.37
2023-08-26T22:02:26.128Z,21.37
2023-08-26T22:05:00.212Z,21.39
2023-08-26T22:07:32.539Z,21.41
2023-08-26T22:10:05.081Z,21.41
2023-08-26T22:12:37.460Z,21.43
2023-08-26T22:15:10.759Z,21.46
2023-08-26T22:17:43.070Z,21.48
2023-08-26T22:20:15.761Z,21.51
2023-08-26T22:22:48.668Z,21.51
2023-08-26T22:25:21.213Z,21.42
2023-08-26T22:27:53.748Z,21.28
2023-08-26T22:30:26.176Z,20.80
2023-08-26T22:32:58.644Z,20.19
2023-08-26T22:35:31.235Z,19.87
2023-08-26T22:38:03.461Z,19.69
2023-08-26T22:40:35.612Z,19.59
2023-08-26T22:43:08.020Z,19.52
2023-08-26T22:45:40.220Z,19.46
2023-08-26T22:48:13.983Z,19.41
2023-08-26T22:50:46.197Z,19.37
2023-08-26T22:53:19.450Z,19.36
2023-08-26T22:55:51.642Z,19.33
2023-08-26T22:58:24.191Z,19.33
2023-08-26T23:00:57.621Z,19.31
2023-08-26T23:03:29.937Z,19.25
2023-08-26T23:06:06.901Z,19.22
2023-08-26T23:08:39.055Z,19.21
2023-08-26T23:11:11.284Z,19.23
2023-08-26T23:13:43.409Z,19.26
2023-08-26T23:16:15.746Z,19.29
2023-08-26T23:18:48.096Z,19.32
2023-08-26T23:21:20.402Z,19.35
2023-08-26T23:23:52.527Z,19.41
2023-08-26T23:26:25.255Z,19.47
2023-08-26T23:28:57.411Z,19.53
2023-08-26T23:31:29.624Z,19.60
2023-08-26T23:34:15.954Z,19.66
2023-08-26T23:36:51.017Z,19.69
2023-08-26T23:39:24.567Z,19.72
2023-08-26T23:41:56.840Z,19.75
2023-08-26T23:44:29.233Z,19.77
2023-08-26T23:47:01.405Z,19.76
2023-08-26T23:49:33.728Z,19.73
2023-08-26T23:52:06.366Z,19.67
2023-08-26T23:54:38.529Z,19.63
2023-08-26T23:57:11.008Z,19.61
2023-08-26T23:59:43.886Z,19.59
